Time;durP1;ratioP1;P1;durP2;ratioP2;P2;SDS_P1;SDS_P2;PMS_P1;PMS_P2;Temp;Humidity;BMP_temperature;BMP_pressure;BME280_temperature;BME280_humidity;BME280_pressure;Samples;Min_cycle;Max_cycle;Signal;HPM_P1;HPM_P2
2023/08/20 00:01:39;;;;;;;0.85;0.57;;;18.40;54.80;;;;;;5053991;28;20096;-77
2023/08/20 00:04:07;;;;;;;0.35;0.35;;;18.50;54.30;;;;;;5054017;28;20128;-77
2023/08/20 00:06:34;;;;;;;0.38;0.38;;;18.70;53.90;;;;;;5054111;28;20017;-80
2023/08/20 00:09:03;;;;;;;5.47;0.80;;;18.80;53.80;;;;;;5055481;28;20518;-79
2023/08/20 00:11:33;;;;;;;12.45;0.80;;;19.00;53.60;;;;;;5055479;28;20083;-78
2023/08/20 00:14:01;;;;;;;1.58;0.45;;;19.20;52.70;;;;;;5053939;28;20116;-77
2023/08/20 00:16:28;;;;;;;36.97;2.08;;;19.30;52.20;;;;;;5070063;28;20040;-77
2023/08/20 00:18:56;;;;;;;34.00;2.08;;;19.60;51.40;;;;;;5053801;28;20490;-78
2023/08/20 00:21:24;;;;;;;20.45;0.93;;;19.70;50.50;;;;;;5053568;28;20428;-77
2023/08/20 00:23:51;;;;;;;1.88;0.50;;;19.70;50.90;;;;;;5053568;28;20025;-81
2023/08/20 00:26:19;;;;;;;0.30;0.30;;;19.80;50.30;;;;;;5053692;28;20032;-81
2023/08/20 00:28:46;;;;;;;129.35;6.75;;;19.90;49.80;;;;;;5053739;28;20021;-79
2023/08/20 00:31:14;;;;;;;1.33;0.40;;;20.00;50.00;;;;;;5053740;28;20387;-79
2023/08/20 00:33:41;;;;;;;19.17;1.23;;;20.00;49.50;;;;;;5053462;28;20021;-80
2023/08/20 00:36:08;;;;;;;1.48;0.40;;;20.20;49.70;;;;;;5053580;28;20040;-79
2023/08/20 00:38:36;;;;;;;18.63;1.10;;;20.30;49.20;;;;;;5053249;28;20483;-79
2023/08/20 00:41:04;;;;;;;12.23;0.90;;;20.50;48.20;;;;;;5068515;28;20449;-79
2023/08/20 00:43:31;;;;;;;2.45;0.65;;;20.50;48.70;;;;;;5053396;28;20494;-77
2023/08/20 00:46:00;;;;;;;21.90;1.38;;;20.50;48.70;;;;;;5052564;28;20104;-79
2023/08/20 00:48:27;;;;;;;6.32;0.63;;;20.40;47.60;;;;;;5054031;28;20407;-80
2023/08/20 00:50:55;;;;;;;0.40;0.30;;;20.50;47.30;;;;;;5051989;28;20463;-77
2023/08/20 00:53:22;;;;;;;36.05;2.17;;;20.70;47.30;;;;;;5053217;28;20032;-78
2023/08/20 00:55:50;;;;;;;6.30;0.60;;;20.90;47.70;;;;;;5053197;28;20103;-77
2023/08/20 00:58:17;;;;;;;0.30;0.30;;;20.90;47.30;;;;;;5052888;28;20391;-79
2023/08/20 01:00:45;;;;;;;6.93;0.95;;;21.30;45.40;;;;;;5052854;28;20464;-79
2023/08/20 01:03:12;;;;;;;3.95;0.50;;;21.30;44.50;;;;;;5053015;28;20025;-76
2023/08/20 01:05:47;;;;;;;0.30;0.30;;;21.30;46.10;;;;;;5052593;28;20033;-77
2023/08/20 01:08:39;;;;;;;4.80;0.50;;;21.50;45.50;;;;;;5053024;28;20021;-76
2023/08/20 01:11:18;;;;;;;3.75;0.50;;;21.40;44.30;;;;;;5053014;28;20017;-77
2023/08/20 01:13:45;;;;;;;0.38;0.38;;;21.50;44.90;;;;;;5052731;28;20384;-77
2023/08/20 01:16:13;;;;;;;7.85;0.60;;;21.80;44.00;;;;;;5053168;28;20028;-77
2023/08/20 01:18:42;;;;;;;2.25;0.65;;;21.90;44.20;;;;;;5052591;28;20056;-77
2023/08/20 01:21:29;;;;;;;0.50;0.50;;;22.00;44.40;;;;;;5052761;28;20427;-77
2023/08/20 01:24:22;;;;;;;4.25;0.60;;;22.10;43.10;;;;;;5052536;28;20108;-76
2023/08/20 01:27:17;;;;;;;77.32;3.40;;;21.80;43.40;;;;;;5052597;28;20467;-79
2023/08/20 01:29:45;;;;;;;0.88;0.38;;;21.70;43.80;;;;;;5052524;28;20060;-79
2023/08/20 01:32:13;;;;;;;27.15;1.42;;;21.60;43.60;;;;;;5051181;28;20021;-78
2023/08/20 01:34:41;;;;;;;2.67;0.50;;;21.50;43.80;;;;;;5052761;28;20022;-79
2023/08/20 01:37:09;;;;;;;4.13;0.50;;;21.60;43.30;;;;;;5052677;28;20032;-79
2023/08/20 01:39:37;;;;;;;180.45;8.43;;;21.80;43.80;;;;;;5051961;28;20048;-80
2023/08/20 01:42:07;;;;;;;2.75;0.70;;;21.80;42.30;;;;;;5052555;28;20025;-79
2023/08/20 01:44:35;;;;;;;15.60;1.27;;;21.60;42.40;;;;;;5052539;28;20554;-78
2023/08/20 01:47:02;;;;;;;3.08;0.63;;;21.40;42.90;;;;;;5052586;28;20021;-79
2023/08/20 01:49:30;;;;;;;0.35;0.35;;;21.20;43.00;;;;;;5052475;28;20074;-79
2023/08/20 01:51:57;;;;;;;1.80;0.60;;;21.20;43.70;;;;;;5052579;28;20103;-77
2023/08/20 01:54:24;;;;;;;0.60;0.40;;;21.30;44.10;;;;;;5052602;28;20108;-80
2023/08/20 01:56:52;;;;;;;1.30;1.00;;;21.50;44.70;;;;;;5055117;28;20025;-79
2023/08/20 01:59:20;;;;;;;0.80;0.60;;;21.50;44.40;;;;;;5056586;28;20033;-79
2023/08/20 02:01:47;;;;;;;4.10;0.60;;;21.60;44.00;;;;;;5056541;28;20029;-80
2023/08/20 02:04:15;;;;;;;0.57;0.50;;;21.60;43.20;;;;;;5056538;28;20479;-76
2023/08/20 02:06:42;;;;;;;0.55;0.50;;;21.60;43.90;;;;;;5056499;28;20025;-77
2023/08/20 02:09:09;;;;;;;1.48;0.50;;;21.70;43.90;;;;;;5056186;28;20025;-79
2023/08/20 02:11:37;;;;;;;0.50;0.50;;;21.70;44.20;;;;;;5056278;28;20021;-76
2023/08/20 02:14:04;;;;;;;2.60;0.50;;;21.70;44.40;;;;;;5071860;28;20372;-77
2023/08/20 02:16:32;;;;;;;0.55;0.40;;;21.70;43.50;;;;;;5056160;28;20028;-77
2023/08/20 02:19:02;;;;;;;0.65;0.40;;;21.70;42.90;;;;;;5056036;28;20049;-79
2023/08/20 02:21:30;;;;;;;0.90;0.70;;;21.50;43.20;;;;;;5055856;28;20039;-79
2023/08/20 02:23:58;;;;;;;0.85;0.40;;;21.50;42.20;;;;;;5055903;28;20186;-77
2023/08/20 02:26:26;;;;;;;0.60;0.60;;;21.30;42.00;;;;;;5055980;28;20017;-77
2023/08/20 02:28:53;;;;;;;0.65;0.50;;;21.50;42.80;;;;;;5055792;28;20049;-77
2023/08/20 02:31:20;;;;;;;1.05;0.60;;;21.50;43.00;;;;;;5055930;28;20024;-77
2023/08/20 02:33:48;;;;;;;2.63;0.70;;;21.40;42.30;;;;;;5055656;28;20021;-78
2023/08/20 02:36:18;;;;;;;0.50;0.50;;;21.30;42.40;;;;;;5055886;28;20028;-77
2023/08/20 02:38:46;;;;;;;0.98;0.40;;;21.30;41.30;;;;;;5055579;28;20045;-76
2023/08/20 02:41:13;;;;;;;0.60;0.60;;;21.20;41.60;;;;;;5055682;28;20063;-76
2023/08/20 02:43:41;;;;;;;0.40;0.40;;;21.20;42.70;;;;;;5055452;28;20017;-77
2023/08/20 02:46:08;;;;;;;0.50;0.50;;;21.20;42.40;;;;;;5055658;28;20021;-78
2023/08/20 02:48:35;;;;;;;0.73;0.50;;;21.30;42.20;;;;;;5055603;28;20395;-80
2023/08/20 02:51:03;;;;;;;5.65;0.60;;;21.50;42.10;;;;;;5055659;28;20490;-81
2023/08/20 02:53:30;;;;;;;1.38;0.63;;;21.60;42.50;;;;;;5054876;28;20051;-81
2023/08/20 02:55:58;;;;;;;0.55;0.40;;;21.70;40.90;;;;;;5055289;28;20098;-81
2023/08/20 02:58:25;;;;;;;3.50;0.60;;;21.70;41.00;;;;;;5055353;28;20021;-79
2023/08/20 03:00:53;;;;;;;0.50;0.50;;;21.70;41.40;;;;;;5055282;28;20112;-79
2023/08/20 03:03:20;;;;;;;0.68;0.60;;;21.80;41.50;;;;;;5055448;28;20021;-77
2023/08/20 03:05:48;;;;;;;0.70;0.60;;;21.80;40.80;;;;;;5054978;28;20021;-80
2023/08/20 03:08:18;;;;;;;0.35;0.35;;;21.80;41.00;;;;;;5054101;28;20033;-80
2023/08/20 03:10:45;;;;;;;0.45;0.40;;;21.80;40.70;;;;;;5055258;28;20155;-81
2023/08/20 03:13:14;;;;;;;0.40;0.40;;;21.70;40.80;;;;;;5055236;28;20059;-79
2023/08/20 03:15:41;;;;;;;0.50;0.50;;;21.70;42.00;;;;;;5055198;28;20435;-81
2023/08/20 03:18:09;;;;;;;1.05;0.68;;;21.70;42.40;;;;;;5055186;28;20505;-79
2023/08/20 03:20:36;;;;;;;0.70;0.70;;;21.80;42.30;;;;;;5057143;28;20053;-79
2023/08/20 03:23:04;;;;;;;0.60;0.60;;;21.80;42.50;;;;;;5056901;28;20486;-78
2023/08/20 03:25:34;;;;;;;0.90;0.43;;;21.90;42.70;;;;;;5056432;28;20074;-82
2023/08/20 03:28:02;;;;;;;0.60;0.60;;;22.00;41.70;;;;;;5054915;28;20021;-77
2023/08/20 03:30:29;;;;;;;0.70;0.68;;;22.00;41.10;;;;;;5054814;28;20109;-77
2023/08/20 03:32:57;;;;;;;0.50;0.50;;;22.00;40.90;;;;;;5054517;28;20464;-76
2023/08/20 03:35:24;;;;;;;0.60;0.50;;;22.10;40.10;;;;;;5054449;28;20482;-80
2023/08/20 03:37:51;;;;;;;4.03;0.60;;;22.10;40.30;;;;;;5054647;28;20025;-77
2023/08/20 03:40:20;;;;;;;0.88;0.60;;;22.10;40.50;;;;;;5054443;28;20037;-78
2023/08/20 03:42:47;;;;;;;1.60;0.60;;;22.20;40.50;;;;;;5054632;28;20059;-79
2023/08/20 03:45:15;;;;;;;0.82;0.45;;;22.20;40.20;;;;;;5054505;28;20035;-79
2023/08/20 03:47:46;;;;;;;0.50;0.50;;;22.10;40.90;;;;;;5054177;28;20035;-76
2023/08/20 03:50:14;;;;;;;0.50;0.50;;;22.10;40.70;;;;;;5054364;28;20475;-78
2023/08/20 03:52:41;;;;;;;0.80;0.80;;;22.00;40.80;;;;;;5054294;28;20441;-77
2023/08/20 03:55:09;;;;;;;1.45;0.90;;;22.10;40.80;;;;;;5054142;28;20032;-77
2023/08/20 03:57:36;;;;;;;0.85;0.60;;;22.10;40.50;;;;;;5054053;28;20021;-78
2023/08/20 04:00:04;;;;;;;0.60;0.60;;;22.10;40.70;;;;;;5054127;28;20037;-77
2023/08/20 04:02:31;;;;;;;1.92;1.05;;;22.10;40.40;;;;;;5054029;28;20029;-78
2023/08/20 04:04:59;;;;;;;1.50;0.88;;;22.10;41.20;;;;;;5054179;28;20032;-79
2023/08/20 04:07:26;;;;;;;0.60;0.57;;;22.20;41.80;;;;;;5053835;28;20029;-77
2023/08/20 04:09:54;;;;;;;0.57;0.57;;;22.20;41.50;;;;;;5053804;28;20089;-76
2023/08/20 04:12:21;;;;;;;0.63;0.60;;;22.20;41.40;;;;;;5054014;28;20105;-78
2023/08/20 04:14:48;;;;;;;1.38;0.57;;;22.20;41.60;;;;;;5053807;28;20029;-80
2023/08/20 04:17:17;;;;;;;0.50;0.50;;;22.20;41.40;;;;;;5053763;28;20028;-80
2023/08/20 04:19:44;;;;;;;0.50;0.50;;;22.20;41.60;;;;;;5053470;28;20053;-77
2023/08/20 04:22:12;;;;;;;0.43;0.43;;;22.20;41.50;;;;;;5053784;28;20025;-78
2023/08/20 04:24:40;;;;;;;0.63;0.47;;;22.20;40.70;;;;;;5068883;28;20083;-78
2023/08/20 04:27:07;;;;;;;0.40;0.40;;;22.20;41.00;;;;;;5053533;28;20028;-78
2023/08/20 04:29:35;;;;;;;0.73;0.40;;;22.20;40.40;;;;;;5053373;28;20033;-83
2023/08/20 04:32:02;;;;;;;0.40;0.40;;;22.20;40.60;;;;;;5053763;28;20088;-78
2023/08/20 04:34:29;;;;;;;3.45;0.60;;;22.10;40.10;;;;;;5053462;28;20446;-77
2023/08/20 04:36:57;;;;;;;0.50;0.50;;;22.20;38.50;;;;;;5053616;28;20388;-77
2023/08/20 04:39:24;;;;;;;2.97;0.55;;;22.10;39.40;;;;;;5053176;28;20020;-76
2023/08/20 04:41:51;;;;;;;0.70;0.60;;;22.00;40.00;;;;;;5053363;28;20071;-84
2023/08/20 04:44:19;;;;;;;0.52;0.43;;;22.00;40.30;;;;;;5053408;28;20029;-77
2023/08/20 04:46:46;;;;;;;4.10;0.70;;;22.00;39.30;;;;;;5053287;28;20032;-77
2023/08/20 04:49:13;;;;;;;0.38;0.38;;;21.90;40.20;;;;;;5052860;28;20021;-79
2023/08/20 04:51:41;;;;;;;0.55;0.50;;;21.90;40.90;;;;;;5052951;28;20064;-78
2023/08/20 04:54:08;;;;;;;1.80;0.45;;;21.90;41.20;;;;;;5053257;28;20412;-77
2023/08/20 04:56:35;;;;;;;0.60;0.50;;;21.90;39.90;;;;;;5053216;28;20494;-76
2023/08/20 04:59:03;;;;;;;4.65;0.60;;;21.80;41.00;;;;;;5053096;28;20037;-81
2023/08/20 05:01:30;;;;;;;1.20;0.60;;;21.80;41.30;;;;;;5053211;28;20013;-77
2023/08/20 05:03:58;;;;;;;0.40;0.40;;;21.80;41.60;;;;;;5052979;28;20100;-79
2023/08/20 05:06:25;;;;;;;1.33;0.55;;;21.80;41.30;;;;;;5052650;28;20441;-80
2023/08/20 05:08:53;;;;;;;1.60;0.80;;;21.80;41.60;;;;;;5052747;28;20025;-80
2023/08/20 05:11:20;;;;;;;0.75;0.50;;;21.70;42.10;;;;;;5052878;28;20419;-79
2023/08/20 05:13:49;;;;;;;0.80;0.60;;;21.70;40.50;;;;;;5052560;28;20376;-77
2023/08/20 05:16:17;;;;;;;0.50;0.50;;;21.70;41.10;;;;;;5052858;28;20021;-79
2023/08/20 05:18:44;;;;;;;0.50;0.50;;;21.60;41.20;;;;;;5052648;28;20140;-78
2023/08/20 05:21:13;;;;;;;3.65;0.60;;;21.60;41.30;;;;;;5052827;28;20036;-77
2023/08/20 05:23:41;;;;;;;0.52;0.52;;;21.60;41.10;;;;;;5052524;28;20100;-78
2023/08/20 05:26:08;;;;;;;2.53;0.60;;;21.50;41.20;;;;;;5052731;28;20025;-78
2023/08/20 05:28:36;;;;;;;0.98;0.43;;;21.50;41.20;;;;;;5052757;28;20025;-77
2023/08/20 05:31:03;;;;;;;0.70;0.50;;;21.30;41.20;;;;;;5052171;28;20459;-78
2023/08/20 05:33:30;;;;;;;1.83;0.60;;;21.30;42.00;;;;;;5052463;28;20418;-82
2023/08/20 05:36:00;;;;;;;0.60;0.60;;;21.30;42.70;;;;;;5052517;28;20028;-78
2023/08/20 05:38:27;;;;;;;0.73;0.43;;;21.20;41.80;;;;;;5050702;28;20087;-78
2023/08/20 05:40:55;;;;;;;1.45;0.68;;;21.20;42.40;;;;;;5052558;28;20029;-80
2023/08/20 05:43:22;;;;;;;0.95;0.50;;;21.20;42.70;;;;;;5052644;28;20017;-77
2023/08/20 05:45:51;;;;;;;0.60;0.60;;;21.20;43.00;;;;;;5052607;28;20032;-80
2023/08/20 05:48:18;;;;;;;1.63;0.75;;;21.20;42.60;;;;;;5052429;28;20017;-77
2023/08/20 05:50:45;;;;;;;0.40;0.40;;;21.10;43.20;;;;;;5052596;28;20443;-77
2023/08/20 05:53:13;;;;;;;1.17;0.47;;;21.00;43.70;;;;;;5052256;28;20425;-77
2023/08/20 05:55:40;;;;;;;1.00;0.50;;;21.00;43.70;;;;;;5052333;28;20391;-78
2023/08/20 05:58:08;;;;;;;0.50;0.45;;;20.90;44.10;;;;;;5052474;28;20107;-78
2023/08/20 06:00:35;;;;;;;0.40;0.40;;;20.80;44.10;;;;;;5052457;28;20075;-77
2023/08/20 06:03:02;;;;;;;0.50;0.40;;;20.80;43.70;;;;;;5052449;28;20041;-79
2023/08/20 06:05:30;;;;;;;1.88;0.50;;;20.70;43.70;;;;;;5052476;28;20036;-78
2023/08/20 06:07:57;;;;;;;1.45;0.70;;;20.60;43.70;;;;;;5052798;28;20025;-82
2023/08/20 06:10:24;;;;;;;0.63;0.40;;;20.50;43.90;;;;;;5052528;28;20032;-77
2023/08/20 06:12:52;;;;;;;1.48;0.50;;;20.40;44.30;;;;;;5052649;28;20104;-78
2023/08/20 06:15:20;;;;;;;0.77;0.43;;;20.30;45.00;;;;;;5067709;28;20032;-77
2023/08/20 06:17:47;;;;;;;1.20;0.50;;;20.30;44.90;;;;;;5052093;28;20344;-79
2023/08/20 06:20:15;;;;;;;2.13;0.60;;;20.20;45.20;;;;;;5052133;28;20055;-80
2023/08/20 06:22:42;;;;;;;0.60;0.45;;;20.20;45.70;;;;;;5052131;28;20016;-78
2023/08/20 06:25:09;;;;;;;1.02;0.50;;;20.20;45.80;;;;;;5052262;28;20074;-77
2023/08/20 06:27:37;;;;;;;0.52;0.40;;;20.10;45.60;;;;;;5051915;28;20025;-76
2023/08/20 06:30:05;;;;;;;1.27;0.52;;;20.00;45.90;;;;;;5052079;28;20087;-78
2023/08/20 06:32:35;;;;;;;1.27;0.45;;;20.00;46.00;;;;;;5052220;28;20483;-78
2023/08/20 06:35:02;;;;;;;1.20;0.60;;;19.90;46.40;;;;;;5052115;28;20023;-80
2023/08/20 06:37:29;;;;;;;1.40;0.60;;;19.80;46.90;;;;;;5051714;28;20078;-78
2023/08/20 06:39:57;;;;;;;0.95;0.43;;;19.70;47.00;;;;;;5052022;28;20032;-79
2023/08/20 06:42:24;;;;;;;1.30;0.50;;;19.70;47.50;;;;;;5052163;28;20032;-79
2023/08/20 06:44:52;;;;;;;1.08;0.40;;;19.70;47.50;;;;;;5055651;28;20021;-76
2023/08/20 06:47:19;;;;;;;0.40;0.40;;;19.70;47.60;;;;;;5055458;28;20025;-78
2023/08/20 06:49:46;;;;;;;1.58;0.55;;;19.60;48.00;;;;;;5055541;28;20025;-80
2023/08/20 06:52:14;;;;;;;0.68;0.40;;;19.50;48.00;;;;;;5055438;28;20474;-78
2023/08/20 06:54:41;;;;;;;0.73;0.50;;;19.40;48.40;;;;;;5055527;28;20032;-79
2023/08/20 06:57:09;;;;;;;2.13;0.47;;;19.40;48.40;;;;;;5070728;28;20029;-80
2023/08/20 06:59:36;;;;;;;1.02;0.50;;;19.30;48.80;;;;;;5055168;28;20029;-78
2023/08/20 07:02:03;;;;;;;1.48;0.50;;;19.30;49.00;;;;;;5055424;28;20054;-81
2023/08/20 07:04:33;;;;;;;1.05;0.60;;;19.20;49.30;;;;;;5055368;28;20066;-79
2023/08/20 07:07:00;;;;;;;0.95;0.50;;;19.20;49.20;;;;;;5055054;28;20407;-78
2023/08/20 07:09:27;;;;;;;2.20;0.70;;;19.20;49.70;;;;;;5054950;28;20017;-78
2023/08/20 07:11:55;;;;;;;5.57;1.05;;;19.20;49.80;;;;;;5053794;28;20028;-78
2023/08/20 07:14:22;;;;;;;2.47;0.93;;;19.10;50.10;;;;;;5055144;28;20036;-77
2023/08/20 07:16:50;;;;;;;1.58;0.52;;;19.00;50.30;;;;;;5055003;28;20395;-78
2023/08/20 07:19:17;;;;;;;0.70;0.70;;;19.00;50.20;;;;;;5053568;28;20132;-77
2023/08/20 07:21:44;;;;;;;5.40;0.80;;;19.00;50.60;;;;;;5054550;28;20029;-78
2023/08/20 07:24:14;;;;;;;0.85;0.60;;;19.00;50.90;;;;;;5054852;28;20597;-79
2023/08/20 07:26:42;;;;;;;2.08;0.70;;;18.90;51.00;;;;;;5054804;28;20029;-78
2023/08/20 07:29:09;;;;;;;1.60;0.68;;;18.90;51.40;;;;;;5054813;28;20032;-76
2023/08/20 07:31:37;;;;;;;1.35;0.70;;;18.80;51.60;;;;;;5054931;28;20049;-81
2023/08/20 07:34:04;;;;;;;0.50;0.50;;;18.80;51.80;;;;;;5054831;28;20025;-78
2023/08/20 07:36:32;;;;;;;2.03;0.70;;;18.70;52.10;;;;;;5054821;28;20021;-78
2023/08/20 07:39:01;;;;;;;2.22;0.90;;;18.70;52.40;;;;;;5054552;28;20033;-77
2023/08/20 07:41:28;;;;;;;1.83;0.85;;;18.70;52.40;;;;;;5054404;28;20035;-78
2023/08/20 07:43:55;;;;;;;1.92;0.90;;;18.70;52.50;;;;;;5054904;28;20029;-80
2023/08/20 07:46:23;;;;;;;1.38;0.70;;;18.70;52.60;;;;;;5054687;28;20056;-80
2023/08/20 07:48:50;;;;;;;0.93;0.60;;;18.60;52.90;;;;;;5054767;28;20379;-78
2023/08/20 07:51:18;;;;;;;0.93;0.70;;;18.60;53.00;;;;;;5055030;28;20375;-78
2023/08/20 07:53:45;;;;;;;1.23;0.70;;;18.60;53.30;;;;;;5069167;28;20036;-78
2023/08/20 07:56:13;;;;;;;2.80;0.70;;;18.60;53.30;;;;;;5054710;28;20491;-78
2023/08/20 07:58:40;;;;;;;2.67;0.88;;;18.60;53.40;;;;;;5054541;28;20027;-78
2023/08/20 08:01:08;;;;;;;1.13;0.80;;;18.50;53.60;;;;;;5053281;28;20464;-78
2023/08/20 08:03:35;;;;;;;1.27;0.60;;;18.50;54.10;;;;;;5054519;28;20047;-77
2023/08/20 08:06:03;;;;;;;1.13;0.73;;;18.40;54.20;;;;;;5054418;28;20036;-77
2023/08/20 08:08:30;;;;;;;2.10;0.93;;;18.40;54.30;;;;;;5054216;28;20025;-78
2023/08/20 08:10:57;;;;;;;1.80;0.70;;;18.40;54.60;;;;;;5055066;28;20017;-78
2023/08/20 08:13:25;;;;;;;2.22;1.00;;;18.30;54.90;;;;;;5055179;28;20372;-80
2023/08/20 08:15:52;;;;;;;2.25;1.00;;;18.30;55.40;;;;;;5054298;28;20025;-78
2023/08/20 08:18:20;;;;;;;2.35;1.23;;;18.30;55.70;;;;;;5053629;28;20117;-81
2023/08/20 08:20:47;;;;;;;1.45;0.95;;;18.30;55.80;;;;;;5053858;28;20029;-82
2023/08/20 08:23:15;;;;;;;1.90;1.00;;;18.30;56.00;;;;;;5053744;28;20384;-77
2023/08/20 08:25:42;;;;;;;2.33;1.27;;;18.30;56.30;;;;;;5053560;28;20446;-80
2023/08/20 08:28:10;;;;;;;1.75;1.10;;;18.30;56.50;;;;;;5053868;28;20110;-80
2023/08/20 08:30:38;;;;;;;3.03;1.40;;;18.30;56.80;;;;;;5053593;28;20056;-79
2023/08/20 08:33:05;;;;;;;1.52;1.00;;;18.20;56.80;;;;;;5049379;28;20542;-79
2023/08/20 08:35:33;;;;;;;2.83;1.55;;;18.20;57.00;;;;;;5052664;28;20021;-78
2023/08/20 08:38:01;;;;;;;2.75;1.80;;;18.20;57.30;;;;;;5053148;28;20552;-83
2023/08/20 08:40:30;;;;;;;5.07;1.48;;;18.20;57.30;;;;;;5052045;28;20047;-77
2023/08/20 08:42:58;;;;;;;6.00;1.30;;;18.20;57.80;;;;;;5052601;28;20048;-78
2023/08/20 08:45:28;;;;;;;3.10;1.05;;;18.20;57.70;;;;;;5052357;28;20039;-78
2023/08/20 08:47:56;;;;;;;2.50;1.20;;;18.10;58.00;;;;;;5053277;28;20070;-78
2023/08/20 08:50:23;;;;;;;1.67;1.00;;;18.10;58.00;;;;;;5051711;28;20435;-77
2023/08/20 08:52:54;;;;;;;3.42;1.20;;;18.10;58.20;;;;;;5052332;28;20025;-80
2023/08/20 08:55:21;;;;;;;2.38;1.30;;;18.20;58.20;;;;;;5052718;28;20024;-78
2023/08/20 08:57:52;;;;;;;5.13;1.40;;;18.20;57.90;;;;;;5052741;28;20029;-77
2023/08/20 09:00:20;;;;;;;3.03;1.30;;;18.20;58.00;;;;;;5051589;28;20052;-81
2023/08/20 09:02:49;;;;;;;3.50;1.27;;;18.20;58.20;;;;;;5053199;28;20032;-77
2023/08/20 09:05:17;;;;;;;2.72;1.10;;;18.20;58.20;;;;;;5052366;28;20031;-78
2023/08/20 09:07:46;;;;;;;2.80;1.20;;;18.10;58.30;;;;;;5052681;28;20021;-81
2023/08/20 09:10:17;;;;;;;3.03;1.02;;;18.10;58.60;;;;;;5051508;28;20426;-80
2023/08/20 09:12:47;;;;;;;1.98;1.23;;;18.00;58.80;;;;;;5052657;28;20479;-77
2023/08/20 09:15:15;;;;;;;5.43;1.65;;;18.00;59.10;;;;;;5051532;28;20108;-79
2023/08/20 09:17:43;;;;;;;3.55;1.20;;;18.00;59.50;;;;;;5052535;28;20494;-81
2023/08/20 09:20:10;;;;;;;3.53;1.20;;;18.00;59.40;;;;;;5051297;28;20056;-78
2023/08/20 09:22:38;;;;;;;2.45;0.98;;;17.90;59.70;;;;;;5052289;28;20468;-78
2023/08/20 09:25:05;;;;;;;2.70;1.30;;;17.90;59.90;;;;;;5053154;28;20029;-81
2023/08/20 09:27:41;;;;;;;2.42;1.30;;;17.80;60.10;;;;;;5072487;28;20375;-77
2023/08/20 09:30:10;;;;;;;3.35;1.27;;;17.90;60.20;;;;;;5070538;28;20079;-78
2023/08/20 09:32:37;;;;;;;3.38;1.30;;;17.90;60.60;;;;;;5050681;28;20029;-80
2023/08/20 09:35:05;;;;;;;2.85;1.65;;;17.80;60.50;;;;;;5051366;28;20029;-78
2023/08/20 09:37:34;;;;;;;5.07;2.30;;;17.90;60.90;;;;;;5052386;28;20556;-78
2023/08/20 09:40:02;;;;;;;4.05;1.80;;;17.90;61.30;;;;;;5052571;28;20033;-77
2023/08/20 09:42:33;;;;;;;5.55;2.58;;;17.90;61.40;;;;;;5052496;28;20040;-78
2023/08/20 09:45:04;;;;;;;6.25;2.10;;;18.00;61.20;;;;;;5052552;28;20102;-78
2023/08/20 09:47:36;;;;;;;2.95;1.67;;;18.00;61.50;;;;;;5052402;28;20037;-78
2023/08/20 09:50:08;;;;;;;4.32;2.08;;;17.90;61.90;;;;;;5052565;28;20086;-84
2023/08/20 09:52:44;;;;;;;4.43;1.88;;;17.90;61.80;;;;;;5051104;28;20032;-78
2023/08/20 09:55:22;;;;;;;4.82;2.42;;;17.80;62.00;;;;;;5052474;28;20104;-81
2023/08/20 09:57:50;;;;;;;5.45;2.10;;;17.80;62.30;;;;;;5052532;28;20479;-80
2023/08/20 10:00:17;;;;;;;5.55;2.25;;;17.70;62.60;;;;;;5052461;28;20102;-79
2023/08/20 10:02:45;;;;;;;7.80;2.35;;;17.70;62.90;;;;;;5050619;28;20104;-77
2023/08/20 10:05:15;;;;;;;4.63;1.80;;;17.60;63.30;;;;;;5040039;28;20017;-79
2023/08/20 10:07:44;;;;;;;3.03;1.60;;;17.60;63.40;;;;;;5052148;28;20475;-78
2023/08/20 10:10:14;;;;;;;4.03;2.28;;;17.50;63.60;;;;;;5040039;28;20079;-78
2023/08/20 10:12:43;;;;;;;4.93;2.42;;;17.50;63.50;;;;;;5032290;28;20079;-78
2023/08/20 10:15:12;;;;;;;9.27;2.95;;;17.50;63.30;;;;;;5032874;28;20076;-83
2023/08/20 10:17:42;;;;;;;4.47;2.60;;;17.50;63.50;;;;;;5034169;28;20468;-76
2023/08/20 10:20:10;;;;;;;4.20;2.45;;;17.40;63.60;;;;;;5035932;28;20140;-79
2023/08/20 10:22:39;;;;;;;7.18;2.10;;;17.40;63.70;;;;;;5035898;28;20021;-81
2023/08/20 10:25:23;;;;;;;5.03;1.77;;;17.30;63.70;;;;;;5035980;28;20030;-79
2023/08/20 10:27:50;;;;;;;4.20;1.90;;;17.30;63.90;;;;;;5036413;28;20068;-78
2023/08/20 10:30:21;;;;;;;3.13;1.73;;;17.30;63.80;;;;;;5051964;28;20423;-79
2023/08/20 10:32:53;;;;;;;3.15;1.70;;;17.30;63.80;;;;;;5036104;28;20025;-77
2023/08/20 10:35:26;;;;;;;5.75;1.83;;;17.30;63.60;;;;;;5035869;28;20486;-78
2023/08/20 10:38:28;;;;;;;7.85;2.17;;;17.30;63.60;;;;;;5035719;28;20036;-78
2023/08/20 10:40:57;;;;;;;4.13;2.38;;;17.20;63.70;;;;;;5032797;28;20042;-82
2023/08/20 10:43:28;;;;;;;3.88;2.33;;;17.20;63.80;;;;;;5035733;28;20034;-79
2023/08/20 10:46:22;;;;;;;2.85;2.03;;;17.10;63.90;;;;;;5035834;28;20020;-82
2023/08/20 10:48:54;;;;;;;5.38;1.95;;;17.00;64.20;;;;;;5035000;28;20021;-80
2023/08/20 10:51:34;;;;;;;3.28;2.55;;;17.00;64.40;;;;;;5035451;28;20379;-81
2023/08/20 10:54:10;;;;;;;5.85;2.72;;;16.90;64.50;;;;;;5035690;28;20026;-79
2023/08/20 10:56:42;;;;;;;4.32;2.70;;;16.90;64.70;;;;;;5035745;28;20479;-79
2023/08/20 10:59:19;;;;;;;4.57;2.38;;;16.80;64.80;;;;;;5049525;28;20033;-81
2023/08/20 11:01:53;;;;;;;6.55;2.60;;;16.80;65.10;;;;;;5055301;28;20025;-78
2023/08/20 11:04:22;;;;;;;6.45;2.28;;;16.70;65.10;;;;;;5054516;28;20021;-78
2023/08/20 11:06:59;;;;;;;7.30;2.63;;;16.60;65.40;;;;;;5055245;28;20033;-78
2023/08/20 11:09:31;;;;;;;4.35;2.50;;;16.60;65.70;;;;;;5055012;28;20036;-78
2023/08/20 11:11:59;;;;;;;4.45;2.38;;;16.50;66.00;;;;;;5055250;28;20025;-79
2023/08/20 11:14:26;;;;;;;6.22;2.67;;;16.50;66.30;;;;;;5055023;28;20152;-77
2023/08/20 11:16:54;;;;;;;4.82;2.85;;;16.40;66.30;;;;;;5053650;28;20017;-77
2023/08/20 11:19:24;;;;;;;5.97;3.10;;;16.40;66.40;;;;;;5054642;28;20077;-79
2023/08/20 11:21:52;;;;;;;4.40;2.38;;;16.30;66.70;;;;;;5053858;28;20028;-77
2023/08/20 11:24:20;;;;;;;5.38;2.80;;;16.30;66.80;;;;;;5054881;28;20025;-77
2023/08/20 11:26:48;;;;;;;5.82;2.95;;;16.30;66.80;;;;;;5054878;28;20087;-78
2023/08/20 11:29:22;;;;;;;6.00;2.78;;;16.20;66.90;;;;;;5054158;28;20032;-82
2023/08/20 11:31:52;;;;;;;6.82;3.10;;;16.20;67.20;;;;;;5055254;28;20472;-83
2023/08/20 11:34:20;;;;;;;6.93;2.85;;;16.10;67.50;;;;;;5055063;28;20060;-80
2023/08/20 11:36:48;;;;;;;5.20;3.05;;;16.10;67.70;;;;;;5054953;28;20025;-78
2023/08/20 11:39:16;;;;;;;4.78;3.05;;;16.10;67.80;;;;;;5054134;28;20033;-78
2023/08/20 11:41:44;;;;;;;7.10;2.92;;;16.00;67.80;;;;;;5054988;28;20071;-82
2023/08/20 11:44:20;;;;;;;5.15;2.63;;;16.00;68.30;;;;;;5054681;28;20025;-80
2023/08/20 11:46:47;;;;;;;4.50;2.80;;;16.00;68.20;;;;;;5054683;28;20078;-78
2023/08/20 11:49:15;;;;;;;4.93;2.72;;;15.90;68.10;;;;;;5054952;28;20078;-78
2023/08/20 11:51:49;;;;;;;4.88;2.90;;;15.90;68.20;;;;;;5054304;28;20035;-82
2023/08/20 11:54:20;;;;;;;4.32;2.70;;;15.80;68.30;;;;;;5070041;28;20028;-78
2023/08/20 11:56:52;;;;;;;5.43;3.10;;;15.80;68.40;;;;;;5053491;28;20434;-80
2023/08/20 11:59:21;;;;;;;5.68;2.60;;;15.70;68.50;;;;;;5038333;28;20036;-81
2023/08/20 12:02:05;;;;;;;4.93;2.83;;;15.70;69.00;;;;;;5033037;28;20037;-81
2023/08/20 12:04:33;;;;;;;5.70;2.80;;;15.70;69.00;;;;;;5041234;28;20025;-79
2023/08/20 12:07:10;;;;;;;5.55;2.90;;;15.70;69.10;;;;;;5054082;28;20430;-78
2023/08/20 12:09:38;;;;;;;3.75;2.35;;;15.60;69.00;;;;;;5053722;28;20033;-78
2023/08/20 12:12:07;;;;;;;5.30;2.78;;;15.60;69.10;;;;;;5052477;28;20079;-78
2023/08/20 12:14:36;;;;;;;4.40;2.47;;;15.60;69.30;;;;;;5034125;28;20029;-80
2023/08/20 12:17:05;;;;;;;6.40;2.80;;;15.60;69.30;;;;;;5034077;28;20030;-78
2023/08/20 12:19:32;;;;;;;6.70;3.65;;;15.60;69.30;;;;;;5033773;28;20484;-77
2023/08/20 12:22:00;;;;;;;5.32;3.13;;;15.50;69.20;;;;;;5033844;28;20029;-78
2023/08/20 12:24:27;;;;;;;6.05;3.00;;;15.50;69.20;;;;;;5032828;28;20472;-78
2023/08/20 12:26:55;;;;;;;5.40;3.05;;;15.40;69.40;;;;;;5033822;28;20109;-78
2023/08/20 12:29:22;;;;;;;6.15;2.80;;;15.40;69.30;;;;;;5034321;28;20361;-76
2023/08/20 12:31:49;;;;;;;4.18;2.47;;;15.40;69.50;;;;;;5033765;28;20108;-77
2023/08/20 12:34:17;;;;;;;5.55;2.25;;;15.30;69.70;;;;;;5033791;28;20021;-81
2023/08/20 12:36:44;;;;;;;3.45;2.28;;;15.30;70.00;;;;;;5033534;28;20026;-83
2023/08/20 12:39:13;;;;;;;4.22;2.60;;;15.30;70.10;;;;;;5033664;28;20490;-79
2023/08/20 12:41:41;;;;;;;5.20;2.60;;;15.30;70.10;;;;;;5033371;28;20024;-79
2023/08/20 12:44:08;;;;;;;5.88;2.60;;;15.40;70.30;;;;;;5033593;28;20391;-79
2023/08/20 12:46:36;;;;;;;6.43;2.50;;;15.40;70.30;;;;;;5034053;28;20480;-77
2023/08/20 12:49:03;;;;;;;3.90;2.28;;;15.50;70.40;;;;;;5033502;28;20106;-79
2023/08/20 12:51:31;;;;;;;5.10;2.15;;;15.50;70.10;;;;;;5033074;28;20021;-78
2023/08/20 12:53:59;;;;;;;3.60;2.20;;;15.50;70.00;;;;;;5033339;28;20045;-78